createdAt,value
2022-10-04T00:08:26.375Z,66.24
2022-10-04T00:11:23.956Z,66.56
2022-10-04T00:25:28.601Z,65.30
2022-10-04T00:31:38.841Z,64.78
2022-10-04T00:34:39.222Z,65.03
2022-10-04T00:40:26.019Z,66.64
2022-10-04T00:45:47.234Z,66.34
2022-10-04T00:54:23.202Z,65.74
2022-10-04T00:59:41.366Z,65.48
2022-10-04T01:02:16.492Z,65.48
2022-10-04T01:04:53.073Z,66.24
2022-10-04T01:10:14.068Z,66.78
2022-10-04T01:13:18.181Z,66.91
2022-10-04T01:24:23.685Z,65.55
2022-10-04T01:26:50.959Z,65.58
2022-10-04T01:32:09.628Z,65.65
2022-10-04T01:34:41.027Z,65.78
2022-10-04T01:39:54.732Z,65.93
2022-10-04T01:48:01.665Z,66.11
2022-10-04T01:53:26.868Z,65.81
2022-10-04T01:59:33.834Z,65.61
2022-10-04T02:16:40.361Z,65.95
2022-10-04T02:19:09.546Z,65.41
2022-10-04T02:21:39.224Z,65.93
2022-10-04T02:24:14.483Z,66.45
2022-10-04T02:29:24.496Z,66.48
2022-10-04T02:37:40.826Z,66.45
2022-10-04T02:40:34.260Z,65.75
2022-10-04T02:43:11.446Z,66.65
2022-10-04T02:51:28.716Z,66.40
2022-10-04T03:03:51.666Z,66.52
2022-10-04T03:30:58.148Z,65.56
2022-10-04T03:51:50.586Z,65.57
2022-10-04T04:10:51.533Z,66.00
2022-10-04T04:13:30.031Z,66.03
2022-10-04T04:16:12.115Z,65.92
2022-10-04T04:18:43.727Z,65.44
2022-10-04T04:21:19.177Z,65.91
2022-10-04T04:23:52.786Z,66.27
2022-10-04T04:26:27.819Z,66.31
2022-10-04T04:28:58.977Z,65.85
2022-10-04T04:31:34.978Z,65.29
2022-10-04T04:34:04.272Z,65.20
2022-10-04T04:36:38.684Z,64.84
2022-10-04T04:39:37.810Z,65.86
2022-10-04T04:42:23.873Z,65.90
2022-10-04T04:44:53.524Z,65.29
2022-10-04T04:50:18.222Z,65.56
2022-10-04T04:52:52.056Z,65.50
2022-10-04T04:55:22.671Z,65.69
2022-10-04T05:00:38.794Z,66.29
2022-10-04T05:03:13.546Z,65.84
2022-10-04T05:05:48.018Z,66.14
2022-10-04T05:08:18.915Z,66.25
2022-10-04T05:10:55.566Z,66.74
2022-10-04T05:13:26.216Z,66.41
2022-10-04T05:15:56.057Z,65.90
2022-10-04T05:18:30.442Z,66.10
2022-10-04T05:21:03.566Z,66.90
2022-10-04T05:23:30.398Z,67.01
2022-10-04T05:26:04.333Z,66.52
2022-10-04T05:28:32.841Z,66.45
2022-10-04T05:31:19.245Z,66.93
2022-10-04T05:33:48.303Z,67.12
2022-10-04T05:36:39.067Z,68.07
2022-10-04T05:39:13.121Z,67.99
2022-10-04T05:41:52.645Z,68.20
2022-10-04T05:44:32.101Z,68.01
2022-10-04T05:47:01.742Z,68.39
2022-10-04T05:49:33.583Z,67.85
2022-10-04T05:52:03.635Z,68.05
2022-10-04T05:54:35.834Z,67.71
2022-10-04T05:57:37.586Z,67.69
2022-10-04T06:00:13.874Z,68.05
2022-10-04T06:03:07.608Z,67.74
2022-10-04T06:08:49.270Z,66.25
2022-10-04T06:11:32.087Z,66.23
2022-10-04T06:14:34.952Z,65.85
2022-10-04T06:17:24.428Z,66.19
2022-10-04T06:20:16.562Z,66.02
2022-10-04T06:22:45.675Z,66.19
2022-10-04T06:25:20.044Z,65.68
2022-10-04T06:27:54.154Z,66.41
2022-10-04T06:30:30.323Z,66.30
2022-10-04T06:33:32.700Z,65.99
2022-10-04T06:36:19.771Z,67.11
2022-10-04T06:39:06.005Z,66.80
2022-10-04T06:41:49.365Z,66.94
2022-10-04T06:44:44.282Z,66.76
2022-10-04T06:50:45.568Z,66.51
2022-10-04T06:59:43.558Z,66.42
2022-10-04T07:02:16.202Z,66.29
2022-10-04T07:05:07.539Z,65.63
2022-10-04T07:14:13.998Z,65.28
2022-10-04T07:16:48.331Z,65.36
2022-10-04T07:19:34.052Z,65.09
2022-10-04T07:22:20.676Z,65.66
2022-10-04T07:25:08.351Z,65.45
2022-10-04T07:54:04.177Z,64.60
2022-10-04T10:34:00.626Z,55.45
2022-10-04T12:16:46.492Z,51.10
